createdAt,value
2023-03-31T00:01:18.707Z,60.66
2023-03-31T00:03:05.689Z,57.90
2023-03-31T00:04:40.129Z,57.27
2023-03-31T00:06:13.421Z,58.41
2023-03-31T00:08:01.705Z,60.25
2023-03-31T00:09:25.837Z,62.31
2023-03-31T00:11:06.599Z,64.61
2023-03-31T00:12:44.732Z,64.13
2023-03-31T00:14:18.249Z,61.46
2023-03-31T00:15:56.103Z,59.38
2023-03-31T00:17:33.147Z,57.25
2023-03-31T00:19:02.625Z,57.93
2023-03-31T00:20:38.205Z,59.69
2023-03-31T00:22:11.625Z,61.66
2023-03-31T00:23:54.468Z,63.28
2023-03-31T00:25:31.061Z,64.63
2023-03-31T00:27:11.349Z,62.70
2023-03-31T00:28:52.322Z,60.07
2023-03-31T00:30:33.770Z,57.57
2023-03-31T00:32:19.133Z,57.38
2023-03-31T00:34:06.367Z,59.27
2023-03-31T00:35:29.185Z,61.18
2023-03-31T00:36:56.389Z,63.06
2023-03-31T00:38:22.980Z,64.78
2023-03-31T00:39:46.519Z,63.73
2023-03-31T00:41:10.509Z,61.59
2023-03-31T00:42:44.015Z,59.39
2023-03-31T00:44:10.625Z,57.36
2023-03-31T00:45:56.766Z,57.55
2023-03-31T00:47:32.734Z,59.56
2023-03-31T00:48:57.513Z,61.35
2023-03-31T00:50:26.762Z,63.29
2023-03-31T00:52:03.582Z,65.06
2023-03-31T00:53:29.864Z,63.58
2023-03-31T00:55:10.602Z,61.11
2023-03-31T00:56:46.576Z,58.67
2023-03-31T00:58:15.264Z,57.35
2023-03-31T00:59:57.260Z,58.00
2023-03-31T01:01:30.999Z,60.07
2023-03-31T01:03:16.214Z,61.89
2023-03-31T01:04:55.002Z,64.36
2023-03-31T01:06:28.710Z,64.60
2023-03-31T01:08:02.539Z,62.01
2023-03-31T01:09:43.114Z,59.73
2023-03-31T01:11:31.088Z,57.42
2023-03-31T01:13:10.792Z,57.82
2023-03-31T01:14:46.418Z,59.93
2023-03-31T01:16:26.830Z,61.90
2023-03-31T01:18:12.117Z,64.53
2023-03-31T01:19:47.362Z,64.44
2023-03-31T01:21:23.324Z,62.27
2023-03-31T01:23:11.073Z,59.98
2023-03-31T01:24:51.649Z,57.78
2023-03-31T01:26:28.758Z,57.98
2023-03-31T01:28:13.297Z,59.63
2023-03-31T01:29:46.578Z,61.77
2023-03-31T01:31:32.355Z,64.09
2023-03-31T01:33:19.668Z,64.82
2023-03-31T01:34:41.832Z,62.55
2023-03-31T01:36:17.965Z,60.56
2023-03-31T01:37:44.309Z,58.34
2023-03-31T01:39:17.735Z,57.53
2023-03-31T01:41:02.792Z,58.78
2023-03-31T01:42:38.766Z,60.88
2023-03-31T01:44:24.456Z,62.90
2023-03-31T01:45:50.750Z,64.78
2023-03-31T01:47:24.502Z,63.76
2023-03-31T01:48:57.870Z,61.44
2023-03-31T01:50:32.698Z,59.33
2023-03-31T01:52:18.472Z,57.44
2023-03-31T01:53:54.441Z,58.23
2023-03-31T01:55:40.126Z,60.22
2023-03-31T01:57:25.253Z,62.45
2023-03-31T01:58:54.850Z,64.83
2023-03-31T02:00:48.492Z,64.25
2023-03-31T02:02:24.297Z,61.64
2023-03-31T02:04:00.106Z,59.19
2023-03-31T02:05:54.641Z,57.47
2023-03-31T02:07:27.857Z,58.53
2023-03-31T02:09:04.137Z,60.17
2023-03-31T02:10:37.496Z,62.46
2023-03-31T02:12:13.450Z,64.85
2023-03-31T02:13:47.307Z,64.41
2023-03-31T02:15:23.137Z,62.42
2023-03-31T02:16:59.157Z,60.10
2023-03-31T02:18:26.271Z,57.90
2023-03-31T02:20:16.643Z,57.53
2023-03-31T02:21:50.185Z,59.43
2023-03-31T02:23:43.894Z,61.41
2023-03-31T02:25:19.685Z,63.81
2023-03-31T02:26:43.460Z,64.99
2023-03-31T02:28:28.547Z,63.17
2023-03-31T02:30:03.860Z,60.49
2023-03-31T02:31:39.997Z,58.62
2023-03-31T02:33:16.135Z,57.44
2023-03-31T02:34:54.199Z,58.78
2023-03-31T02:36:35.950Z,60.90
2023-03-31T02:38:11.884Z,62.85
2023-03-31T02:39:56.994Z,65.18
2023-03-31T02:41:41.993Z,63.39
2023-03-31T02:43:22.921Z,60.74
2023-03-31T02:45:10.441Z,58.67
2023-03-31T02:46:43.943Z,57.70
2023-03-31T02:48:19.627Z,58.92
2023-03-31T02:49:52.691Z,61.02
2023-03-31T02:51:26.818Z,63.00
2023-03-31T02:52:50.836Z,65.00
2023-03-31T02:54:26.504Z,64.24
2023-03-31T02:56:03.088Z,62.05
2023-03-31T02:57:49.109Z,59.61
2023-03-31T02:59:34.585Z,57.58
2023-03-31T03:01:10.251Z,58.27
2023-03-31T03:02:51.284Z,60.24
2023-03-31T03:04:25.278Z,62.35
2023-03-31T03:06:06.114Z,65.01
2023-03-31T03:07:58.785Z,64.17
2023-03-31T03:09:32.701Z,61.71
2023-03-31T03:11:18.401Z,59.70
2023-03-31T03:13:03.385Z,57.78
2023-03-31T03:14:28.559Z,58.36
2023-03-31T03:16:01.844Z,60.18
2023-03-31T03:17:33.607Z,62.35
2023-03-31T03:19:15.510Z,64.61
2023-03-31T03:20:53.260Z,64.54
2023-03-31T03:22:43.660Z,62.11
2023-03-31T03:24:24.229Z,59.73
2023-03-31T03:26:09.396Z,57.73
2023-03-31T03:27:54.607Z,58.42
2023-03-31T03:29:30.100Z,60.28
2023-03-31T03:31:14.587Z,62.52
2023-03-31T03:33:08.287Z,64.88
2023-03-31T03:34:52.167Z,63.64
2023-03-31T03:36:41.564Z,61.07
2023-03-31T03:38:14.812Z,58.82
2023-03-31T03:39:59.679Z,57.71
2023-03-31T03:41:25.782Z,58.83
2023-03-31T03:43:08.874Z,60.77
2023-03-31T03:44:46.426Z,62.98
2023-03-31T03:46:10.345Z,65.20
2023-03-31T03:47:56.439Z,64.02
2023-03-31T03:49:29.968Z,61.55
2023-03-31T03:51:14.957Z,59.52
2023-03-31T03:52:48.394Z,57.68
2023-03-31T03:54:41.992Z,58.45
2023-03-31T03:56:03.472Z,60.38
2023-03-31T03:57:47.543Z,62.21
2023-03-31T03:59:21.175Z,65.09
2023-03-31T04:00:50.580Z,64.63
2023-03-31T04:02:26.848Z,62.29
2023-03-31T04:04:13.318Z,59.96
2023-03-31T04:05:58.450Z,57.78
2023-03-31T04:07:29.914Z,58.09
2023-03-31T04:09:03.923Z,59.83
2023-03-31T04:10:39.967Z,61.78
2023-03-31T04:12:13.225Z,64.12
2023-03-31T04:13:56.648Z,64.94
2023-03-31T04:15:30.589Z,62.61
2023-03-31T04:17:03.857Z,60.47
2023-03-31T04:18:39.659Z,58.44
2023-03-31T04:20:25.139Z,57.62
2023-03-31T04:22:02.316Z,59.17
2023-03-31T04:23:38.447Z,61.38
2023-03-31T04:25:02.844Z,63.44
2023-03-31T04:26:56.590Z,64.99
2023-03-31T04:28:29.999Z,63.30
2023-03-31T04:30:14.953Z,60.72
2023-03-31T04:31:59.887Z,58.45
2023-03-31T04:33:23.591Z,57.73
2023-03-31T04:34:58.372Z,58.89
2023-03-31T04:36:20.053Z,60.84
2023-03-31T04:38:10.357Z,62.99
2023-03-31T04:39:34.742Z,65.06
2023-03-31T04:41:15.474Z,63.86
2023-03-31T04:42:51.225Z,61.51
2023-03-31T04:44:26.931Z,59.39
2023-03-31T04:46:02.383Z,57.62
2023-03-31T04:47:48.891Z,58.42
2023-03-31T04:49:29.556Z,60.29
2023-03-31T04:51:04.277Z,62.13
2023-03-31T04:52:39.979Z,64.66
2023-03-31T04:54:20.778Z,64.33
2023-03-31T04:56:06.532Z,61.80
2023-03-31T04:57:30.905Z,59.46
2023-03-31T04:59:04.371Z,57.62
2023-03-31T05:00:54.289Z,58.02
2023-03-31T05:02:35.461Z,60.04
2023-03-31T05:04:09.336Z,62.10
2023-03-31T05:05:46.389Z,64.22
2023-03-31T05:07:12.708Z,64.88
2023-03-31T05:08:49.012Z,63.02
2023-03-31T05:10:13.177Z,60.57
2023-03-31T05:11:35.285Z,58.58
2023-03-31T05:13:10.095Z,57.38
2023-03-31T05:15:00.364Z,58.66
2023-03-31T05:16:52.522Z,60.79
2023-03-31T05:18:33.265Z,63.17
2023-03-31T05:20:13.874Z,64.93
2023-03-31T05:21:54.957Z,63.41
2023-03-31T05:23:28.329Z,61.15
2023-03-31T05:25:13.335Z,58.75
2023-03-31T05:27:01.468Z,57.35
2023-03-31T05:28:44.308Z,58.94
2023-03-31T05:30:18.249Z,61.17
2023-03-31T05:31:58.693Z,63.34
2023-03-31T05:33:47.045Z,65.06
2023-03-31T05:35:20.507Z,63.20
2023-03-31T05:36:55.040Z,61.13
2023-03-31T05:38:41.832Z,58.82
2023-03-31T05:40:15.319Z,57.64
2023-03-31T05:42:00.016Z,58.90
2023-03-31T05:43:35.480Z,60.78
2023-03-31T05:45:18.483Z,62.82
2023-03-31T05:47:03.511Z,64.89
2023-03-31T05:48:38.040Z,63.22
2023-03-31T05:50:14.041Z,61.19
2023-03-31T05:52:07.766Z,58.81
2023-03-31T05:53:48.482Z,57.49
2023-03-31T05:55:33.882Z,58.82
2023-03-31T05:57:18.813Z,60.94
2023-03-31T05:59:12.121Z,63.38
2023-03-31T06:00:57.171Z,64.97
2023-03-31T06:02:51.617Z,62.87
2023-03-31T06:04:37.108Z,59.92
2023-03-31T06:06:24.585Z,57.61
2023-03-31T06:07:58.084Z,57.93
2023-03-31T06:09:46.343Z,59.84
2023-03-31T06:11:19.736Z,62.26
2023-03-31T06:12:43.854Z,64.58
2023-03-31T06:14:28.621Z,64.66
2023-03-31T06:16:04.294Z,62.12
2023-03-31T06:17:55.872Z,59.86
2023-03-31T06:19:40.939Z,57.56
2023-03-31T06:21:26.025Z,58.02
2023-03-31T06:23:11.228Z,59.84
2023-03-31T06:24:44.446Z,62.10
2023-03-31T06:26:15.530Z,64.08
2023-03-31T06:28:00.506Z,64.25
2023-03-31T06:29:34.182Z,62.03
2023-03-31T06:31:14.765Z,59.36
2023-03-31T06:32:48.621Z,57.16
2023-03-31T06:34:21.905Z,57.47
2023-03-31T06:36:06.665Z,59.17
2023-03-31T06:37:53.069Z,61.24
2023-03-31T06:39:28.227Z,63.17
2023-03-31T06:41:01.627Z,64.69
2023-03-31T06:42:36.976Z,63.15
2023-03-31T06:44:12.843Z,60.41
2023-03-31T06:46:00.329Z,57.94
2023-03-31T06:47:26.572Z,57.16
2023-03-31T06:49:08.890Z,58.38
2023-03-31T06:50:58.068Z,60.15
2023-03-31T06:52:43.352Z,62.48
2023-03-31T06:54:17.199Z,64.46
2023-03-31T06:55:58.041Z,63.28
2023-03-31T06:57:26.853Z,60.92
2023-03-31T06:58:58.589Z,58.54
2023-03-31T07:00:33.964Z,56.70
2023-03-31T07:02:19.166Z,57.79
2023-03-31T07:03:48.523Z,59.46
2023-03-31T07:05:41.537Z,61.50
2023-03-31T07:07:17.344Z,63.66
2023-03-31T07:09:09.328Z,64.51
2023-03-31T07:10:54.623Z,61.98
2023-03-31T07:12:31.106Z,59.18
2023-03-31T07:14:04.538Z,56.97
2023-03-31T07:15:38.153Z,57.13
2023-03-31T07:17:11.433Z,58.88
2023-03-31T07:19:00.066Z,60.52
2023-03-31T07:20:45.216Z,62.35
2023-03-31T07:22:29.491Z,64.21
2023-03-31T07:24:10.670Z,63.09
2023-03-31T07:26:00.037Z,60.31
2023-03-31T07:27:33.272Z,57.18
2023-03-31T07:29:02.432Z,56.98
2023-03-31T07:30:47.707Z,58.20
2023-03-31T07:32:29.233Z,60.02
2023-03-31T07:34:05.252Z,61.73
2023-03-31T07:35:36.217Z,63.79
2023-03-31T07:37:21.292Z,64.33
2023-03-31T07:38:52.765Z,61.86
2023-03-31T07:40:27.437Z,59.01
2023-03-31T07:42:03.713Z,56.93
2023-03-31T07:43:48.806Z,57.57
2023-03-31T07:45:37.832Z,59.31
2023-03-31T07:47:11.330Z,60.93
2023-03-31T07:49:06.483Z,62.69
2023-03-31T07:50:39.829Z,64.39
2023-03-31T07:52:24.927Z,62.22
2023-03-31T07:54:18.604Z,59.04
2023-03-31T07:56:03.524Z,56.62
2023-03-31T07:57:51.607Z,57.50
2023-03-31T07:59:24.888Z,59.17
2023-03-31T08:01:05.592Z,60.55
2023-03-31T08:02:48.572Z,62.10
2023-03-31T08:04:34.008Z,63.92
2023-03-31T08:06:14.741Z,63.10
2023-03-31T08:07:55.809Z,60.42
2023-03-31T08:09:37.251Z,57.25
2023-03-31T08:11:22.301Z,56.66
2023-03-31T08:13:08.733Z,58.26
2023-03-31T08:14:54.482Z,59.65
2023-03-31T08:16:39.520Z,61.54
2023-03-31T08:18:21.923Z,62.92
2023-03-31T08:20:08.035Z,63.59
2023-03-31T08:21:42.181Z,61.13
2023-03-31T08:23:15.706Z,58.14
2023-03-31T08:25:00.671Z,56.03
2023-03-31T08:26:24.163Z,56.69
2023-03-31T08:27:57.589Z,58.36
2023-03-31T08:29:31.279Z,59.97
2023-03-31T08:30:57.691Z,61.25
2023-03-31T08:32:31.315Z,62.46
2023-03-31T08:34:11.881Z,63.83
2023-03-31T08:35:45.450Z,62.21
2023-03-31T08:37:26.078Z,59.18
2023-03-31T08:39:06.858Z,56.15
2023-03-31T08:40:40.593Z,56.40
2023-03-31T08:42:27.125Z,57.72
2023-03-31T08:44:00.489Z,59.13
2023-03-31T08:45:46.826Z,60.48
2023-03-31T08:47:27.678Z,61.76
2023-03-31T08:49:12.794Z,62.64
2023-03-31T08:50:46.095Z,63.81
2023-03-31T08:52:19.406Z,61.70
2023-03-31T08:53:55.949Z,58.81
2023-03-31T08:55:41.230Z,55.68
2023-03-31T08:57:21.831Z,55.90
2023-03-31T08:59:09.906Z,57.29
2023-03-31T09:00:43.674Z,58.79
2023-03-31T09:02:18.478Z,59.94
2023-03-31T09:04:06.385Z,61.09
2023-03-31T09:05:49.385Z,62.37
2023-03-31T09:07:33.405Z,63.59
2023-03-31T09:09:08.477Z,61.91
2023-03-31T09:10:37.924Z,59.14
2023-03-31T09:12:07.890Z,56.31
2023-03-31T09:13:48.876Z,56.15
2023-03-31T09:15:34.126Z,57.15
2023-03-31T09:17:15.396Z,58.47
2023-03-31T09:18:37.538Z,59.41
2023-03-31T09:20:11.118Z,60.48
2023-03-31T09:21:47.046Z,61.68
2023-03-31T09:23:08.918Z,62.53
2023-03-31T09:24:33.105Z,63.47
2023-03-31T09:25:55.147Z,62.51
2023-03-31T09:27:19.435Z,59.82
2023-03-31T09:28:43.815Z,56.85
2023-03-31T09:30:28.761Z,55.86
2023-03-31T09:31:54.883Z,56.34
2023-03-31T09:33:35.737Z,57.72
2023-03-31T09:35:12.448Z,58.79
2023-03-31T09:36:38.685Z,59.64
2023-03-31T09:38:02.525Z,60.42
2023-03-31T09:39:31.424Z,61.07
2023-03-31T09:40:52.953Z,61.72
2023-03-31T09:42:14.820Z,62.32
2023-03-31T09:44:00.154Z,63.49
2023-03-31T09:45:39.545Z,62.39
2023-03-31T09:47:13.194Z,58.45
2023-03-31T09:48:48.394Z,55.63
2023-03-31T09:50:25.432Z,55.81
2023-03-31T09:51:47.861Z,56.54
2023-03-31T09:55:36.055Z,59.09
2023-03-31T09:57:09.023Z,59.91
2023-03-31T09:58:44.465Z,60.50
2023-03-31T10:00:28.084Z,61.27
2023-03-31T10:02:13.252Z,62.08
2023-03-31T10:03:58.283Z,63.06
2023-03-31T10:05:32.344Z,62.70
2023-03-31T10:07:13.233Z,60.23
2023-03-31T10:08:55.077Z,56.63
2023-03-31T10:10:26.263Z,55.20
2023-03-31T10:11:59.702Z,55.77
2023-03-31T10:13:33.275Z,56.60
2023-03-31T10:15:18.478Z,57.82
2023-03-31T10:16:58.740Z,58.66
2023-03-31T10:18:48.290Z,59.66
2023-03-31T10:20:28.706Z,60.10
2023-03-31T10:22:04.858Z,60.70
2023-03-31T10:23:58.329Z,61.01
2023-03-31T10:25:39.621Z,61.39
2023-03-31T10:27:12.728Z,61.90
2023-03-31T10:28:58.919Z,62.61
2023-03-31T10:30:43.962Z,62.53
2023-03-31T10:32:29.250Z,59.21
2023-03-31T10:34:11.620Z,55.77
2023-03-31T10:36:05.287Z,54.56
2023-03-31T10:37:41.091Z,54.81
2023-03-31T10:39:14.547Z,55.50
2023-03-31T10:40:59.831Z,56.86
2023-03-31T10:42:45.057Z,57.38
2023-03-31T10:44:25.662Z,57.40
2023-03-31T10:46:01.183Z,57.47
2023-03-31T10:47:25.053Z,57.90
2023-03-31T10:49:01.198Z,58.39
2023-03-31T10:50:34.426Z,58.46
2023-03-31T10:52:14.975Z,58.62
2023-03-31T10:53:48.733Z,58.51
2023-03-31T10:55:22.030Z,58.84
2023-03-31T10:56:44.706Z,59.05
2023-03-31T10:58:06.657Z,59.02
2023-03-31T10:59:36.643Z,59.09
2023-03-31T11:01:13.216Z,58.95
2023-03-31T11:02:59.000Z,58.74
2023-03-31T11:04:35.364Z,59.00
2023-03-31T11:06:12.159Z,59.45
2023-03-31T11:07:56.663Z,59.27
2023-03-31T11:09:30.074Z,59.27
2023-03-31T11:11:15.359Z,58.98
2023-03-31T11:13:04.873Z,58.92
2023-03-31T11:14:40.832Z,58.95
2023-03-31T11:16:26.476Z,58.84
2023-03-31T11:18:02.677Z,59.16
2023-03-31T11:19:48.845Z,59.31
2023-03-31T11:21:24.228Z,57.93
2023-03-31T11:23:06.793Z,57.83
2023-03-31T11:24:35.442Z,57.17
2023-03-31T11:26:20.481Z,56.89
2023-03-31T11:27:53.741Z,57.56
2023-03-31T11:29:30.909Z,58.08
2023-03-31T11:30:52.544Z,58.09
2023-03-31T11:32:31.217Z,58.21
2023-03-31T11:34:04.730Z,58.23
2023-03-31T11:35:38.494Z,58.27
2023-03-31T11:37:13.202Z,57.63
2023-03-31T11:38:54.228Z,57.26
2023-03-31T11:40:34.440Z,57.19
2023-03-31T11:42:27.700Z,57.00
2023-03-31T11:44:14.262Z,56.73
2023-03-31T11:45:59.453Z,56.74
2023-03-31T11:47:44.609Z,57.13
2023-03-31T11:49:17.972Z,57.31
2023-03-31T11:50:53.872Z,57.46
2023-03-31T11:54:29.497Z,58.20
2023-03-31T11:56:10.844Z,58.49
2023-03-31T11:58:04.023Z,58.80
2023-03-31T11:59:29.900Z,58.90
2023-03-31T12:01:15.175Z,59.14
2023-03-31T12:03:04.291Z,59.14
2023-03-31T12:04:37.726Z,59.30
2023-03-31T12:06:23.564Z,59.41
2023-03-31T12:07:48.109Z,59.49
2023-03-31T12:09:21.075Z,59.72
2023-03-31T12:10:59.149Z,59.67
2023-03-31T12:12:42.629Z,59.70
2023-03-31T12:14:18.044Z,59.70
2023-03-31T12:15:51.493Z,59.69
2023-03-31T12:17:36.370Z,59.56
2023-03-31T12:19:00.858Z,59.79
2023-03-31T12:20:41.734Z,59.93
2023-03-31T12:22:22.371Z,59.66
2023-03-31T12:23:58.570Z,59.77
2023-03-31T12:25:22.854Z,59.57
2023-03-31T12:27:03.915Z,59.46
2023-03-31T12:28:57.459Z,59.53
2023-03-31T12:30:42.920Z,59.21
2023-03-31T12:32:16.406Z,59.25
2023-03-31T12:33:59.593Z,59.32
2023-03-31T12:35:49.112Z,59.42
2023-03-31T12:37:31.077Z,59.41
2023-03-31T12:39:16.264Z,59.45
2023-03-31T12:41:10.608Z,59.86
2023-03-31T12:42:45.680Z,60.08
2023-03-31T12:44:26.295Z,60.28
2023-03-31T12:45:57.781Z,60.42
2023-03-31T12:47:42.634Z,60.42
2023-03-31T12:49:36.567Z,60.43
2023-03-31T12:51:13.242Z,60.47
2023-03-31T12:52:58.027Z,60.98
2023-03-31T12:54:31.082Z,61.46
2023-03-31T12:55:57.639Z,62.01
2023-03-31T12:57:19.357Z,62.62
2023-03-31T12:58:52.655Z,63.05
2023-03-31T13:00:37.916Z,61.63
2023-03-31T13:02:29.299Z,57.41
2023-03-31T13:04:15.832Z,54.62
2023-03-31T13:05:43.430Z,54.99
2023-03-31T13:07:27.941Z,56.01
2023-03-31T13:09:16.099Z,56.60
2023-03-31T13:10:51.853Z,57.14
2023-03-31T13:12:25.605Z,57.77
2023-03-31T13:14:00.809Z,58.47
2023-03-31T13:15:34.525Z,59.55
2023-03-31T13:17:09.963Z,59.38
2023-03-31T13:18:44.999Z,60.19
2023-03-31T13:20:20.390Z,59.41
2023-03-31T13:21:53.991Z,59.69
2023-03-31T13:23:30.494Z,59.79
2023-03-31T13:25:06.534Z,60.22
2023-03-31T13:26:30.769Z,59.94
2023-03-31T13:28:15.643Z,59.16
2023-03-31T13:30:09.231Z,58.51
2023-03-31T13:31:45.166Z,58.45
2023-03-31T13:33:18.371Z,57.01
2023-03-31T13:35:04.202Z,56.52
2023-03-31T13:36:27.980Z,54.59
2023-03-31T13:38:01.405Z,53.63
2023-03-31T13:39:54.792Z,53.30
2023-03-31T13:41:40.263Z,52.99
2023-03-31T13:43:09.086Z,52.05
2023-03-31T13:44:44.597Z,52.26
2023-03-31T13:46:29.484Z,52.22
2023-03-31T13:47:53.547Z,52.68
2023-03-31T13:49:24.809Z,52.42
2023-03-31T13:50:53.758Z,52.20
2023-03-31T13:52:34.327Z,52.46
2023-03-31T13:53:56.356Z,52.51
2023-03-31T13:55:31.525Z,51.67
2023-03-31T13:57:22.583Z,51.50
2023-03-31T13:59:14.512Z,51.72
2023-03-31T14:00:48.181Z,51.99
2023-03-31T14:02:30.727Z,52.10
2023-03-31T14:04:00.071Z,50.93
2023-03-31T14:05:36.202Z,50.59
2023-03-31T14:07:18.086Z,50.69
2023-03-31T14:09:04.606Z,50.19
2023-03-31T14:10:58.620Z,50.63
2023-03-31T14:12:40.078Z,50.60
2023-03-31T14:14:24.890Z,50.29
2023-03-31T14:15:58.505Z,50.25
2023-03-31T14:17:32.048Z,50.36
2023-03-31T14:19:17.056Z,50.32
2023-03-31T14:20:39.088Z,50.39
2023-03-31T14:22:07.862Z,50.69
2023-03-31T14:24:01.435Z,50.82
2023-03-31T14:25:56.578Z,51.01
2023-03-31T14:27:45.600Z,51.40
2023-03-31T14:29:20.650Z,51.51
2023-03-31T14:31:05.994Z,51.52
2023-03-31T14:32:51.813Z,51.43
2023-03-31T14:34:27.761Z,51.60
2023-03-31T14:36:01.860Z,51.70
2023-03-31T14:37:37.714Z,51.96
2023-03-31T14:39:22.937Z,51.92
2023-03-31T14:41:16.384Z,51.99
2023-03-31T14:43:01.496Z,52.05
2023-03-31T14:44:54.906Z,52.17
2023-03-31T14:46:35.627Z,52.45
2023-03-31T14:48:11.209Z,52.66
2023-03-31T14:49:56.879Z,53.01
2023-03-31T14:51:23.432Z,53.24
2023-03-31T14:53:08.100Z,55.53
2023-03-31T14:54:49.732Z,58.62
2023-03-31T14:56:44.629Z,61.49
2023-03-31T14:58:29.406Z,64.33
2023-03-31T14:59:53.574Z,65.31
2023-03-31T15:01:47.336Z,63.51
2023-03-31T15:05:31.903Z,57.29
2023-03-31T15:07:03.093Z,57.55
2023-03-31T15:08:57.291Z,60.23
2023-03-31T15:10:30.490Z,62.85
2023-03-31T15:12:11.972Z,65.21
2023-03-31T15:13:53.052Z,65.08
2023-03-31T15:15:56.618Z,61.86
2023-03-31T15:17:32.528Z,59.80
2023-03-31T15:19:01.960Z,57.86
2023-03-31T15:20:28.191Z,55.81
2023-03-31T15:22:01.581Z,56.12
2023-03-31T15:23:25.405Z,58.20
2023-03-31T15:24:49.554Z,60.18
2023-03-31T15:26:22.590Z,61.64
2023-03-31T15:28:10.980Z,64.65
2023-03-31T15:29:44.845Z,65.39
2023-03-31T15:31:20.431Z,63.21
2023-03-31T15:32:42.466Z,59.86
2023-03-31T15:34:28.979Z,57.05
2023-03-31T15:36:03.802Z,57.49
2023-03-31T15:37:55.317Z,59.37
2023-03-31T15:39:37.024Z,61.02
2023-03-31T15:41:06.461Z,63.26
2023-03-31T15:42:28.069Z,63.29
2023-03-31T15:43:59.323Z,61.68
2023-03-31T15:45:33.052Z,58.76
2023-03-31T15:47:08.917Z,56.69
2023-03-31T15:48:33.429Z,57.38
2023-03-31T15:50:08.130Z,58.94
2023-03-31T15:51:29.760Z,60.11
2023-03-31T15:52:53.142Z,60.49
2023-03-31T15:54:26.506Z,60.87
2023-03-31T15:56:02.110Z,61.66
2023-03-31T15:57:34.294Z,63.72
2023-03-31T15:59:19.550Z,64.43
2023-03-31T16:01:04.682Z,62.05
2023-03-31T16:02:36.689Z,59.40
2023-03-31T16:04:27.792Z,57.52
2023-03-31T16:06:04.155Z,58.24
2023-03-31T16:07:37.957Z,59.42
2023-03-31T16:09:21.974Z,61.16
2023-03-31T16:11:07.210Z,64.43
2023-03-31T16:13:00.978Z,65.03
2023-03-31T16:14:36.626Z,62.36
2023-03-31T16:16:01.206Z,59.71
2023-03-31T16:17:36.481Z,57.44
2023-03-31T16:19:04.096Z,57.81
2023-03-31T16:20:49.514Z,58.75
2023-03-31T16:22:36.499Z,60.80
2023-03-31T16:24:29.941Z,62.91
2023-03-31T16:26:05.451Z,63.06
2023-03-31T16:27:50.660Z,60.81
2023-03-31T16:29:23.642Z,57.61
2023-03-31T16:31:08.876Z,56.64
2023-03-31T16:32:55.053Z,57.98
2023-03-31T16:34:16.805Z,59.34
2023-03-31T16:35:50.144Z,60.14
2023-03-31T16:37:23.496Z,61.83
2023-03-31T16:39:15.753Z,64.01
2023-03-31T16:40:52.080Z,63.13
2023-03-31T16:42:45.639Z,60.34
2023-03-31T16:44:30.680Z,56.88
2023-03-31T16:46:15.911Z,56.22
2023-03-31T16:47:49.714Z,57.76
2023-03-31T16:49:23.140Z,58.85
2023-03-31T16:51:04.575Z,60.45
2023-03-31T16:52:50.052Z,62.43
2023-03-31T16:54:34.341Z,63.57
2023-03-31T16:55:59.319Z,61.82
2023-03-31T16:57:44.489Z,59.67
2023-03-31T16:59:23.232Z,56.67
2023-03-31T17:01:08.451Z,56.98
2023-03-31T17:03:01.973Z,58.25
2023-03-31T17:04:38.251Z,59.98
2023-03-31T17:06:22.981Z,61.93
2023-03-31T17:08:12.503Z,64.04
2023-03-31T17:09:49.672Z,62.35
2023-03-31T17:11:32.379Z,59.97
2023-03-31T17:13:09.191Z,57.17
2023-03-31T17:14:40.925Z,56.81
2023-03-31T17:16:32.907Z,58.11
2023-03-31T17:18:18.427Z,60.56
2023-03-31T17:20:01.285Z,61.90
2023-03-31T17:21:34.590Z,63.72
2023-03-31T17:23:19.451Z,63.95
2023-03-31T17:25:08.772Z,61.37
2023-03-31T17:26:39.349Z,58.37
2023-03-31T17:28:15.302Z,56.73
2023-03-31T17:30:00.887Z,57.71
2023-03-31T17:31:24.762Z,59.18
2023-03-31T17:33:10.378Z,61.00
2023-03-31T17:35:00.568Z,62.56
2023-03-31T17:36:45.591Z,64.27
2023-03-31T17:38:31.018Z,62.23
2023-03-31T17:40:12.972Z,59.76
2023-03-31T17:41:49.240Z,57.10
2023-03-31T17:43:29.406Z,57.65
2023-03-31T17:45:04.040Z,59.36
2023-03-31T17:46:52.112Z,61.17
2023-03-31T17:48:16.340Z,63.38
2023-03-31T17:49:51.846Z,65.05
2023-03-31T17:51:36.386Z,64.03
2023-03-31T17:53:18.195Z,61.66
2023-03-31T17:55:05.398Z,59.37
2023-03-31T17:56:59.087Z,57.81
2023-03-31T17:58:44.234Z,59.17
2023-03-31T18:00:08.880Z,61.09
2023-03-31T18:02:05.410Z,63.74
2023-03-31T18:03:47.448Z,65.68
2023-03-31T18:05:40.459Z,63.77
2023-03-31T18:07:25.906Z,61.25
2023-03-31T18:09:20.508Z,59.16
2023-03-31T18:13:07.866Z,59.89
2023-03-31T18:14:53.845Z,62.42
2023-03-31T18:21:33.478Z,60.21
2023-03-31T18:22:55.109Z,58.92
2023-03-31T18:32:16.404Z,64.00
2023-03-31T18:36:27.563Z,59.57
2023-03-31T18:38:09.312Z,58.28
2023-03-31T18:42:27.322Z,62.61
2023-03-31T18:43:58.679Z,65.23
2023-03-31T18:48:05.653Z,61.50
2023-03-31T18:55:05.837Z,61.29
2023-03-31T18:56:39.475Z,63.87
2023-03-31T18:58:51.797Z,64.70
2023-03-31T19:00:36.596Z,62.73
2023-03-31T19:02:21.651Z,60.59
2023-03-31T19:15:00.173Z,62.17
2023-03-31T19:21:44.069Z,60.01
2023-03-31T19:23:28.949Z,62.36
2023-03-31T19:25:13.940Z,65.32
2023-03-31T19:26:41.234Z,64.64
2023-03-31T19:28:04.112Z,62.89
2023-03-31T19:29:27.791Z,61.23
2023-03-31T19:31:08.927Z,59.45
2023-03-31T19:32:46.006Z,58.04
2023-03-31T19:34:19.748Z,58.95
2023-03-31T19:35:51.318Z,61.08
2023-03-31T19:37:41.075Z,63.51
2023-03-31T19:39:14.576Z,65.01
2023-03-31T19:40:54.725Z,63.38
2023-03-31T19:42:35.497Z,60.84
2023-03-31T19:44:16.796Z,58.88
2023-03-31T19:46:02.390Z,58.31
2023-03-31T19:47:56.377Z,60.03
2023-03-31T19:49:28.317Z,62.14
2023-03-31T19:50:52.979Z,64.78
2023-03-31T19:52:28.373Z,65.21
2023-03-31T19:53:57.881Z,63.75
2023-03-31T19:55:34.290Z,61.73
2023-03-31T19:57:01.787Z,60.30
2023-03-31T19:58:44.254Z,59.03
2023-03-31T20:00:19.941Z,58.70
2023-03-31T20:02:13.495Z,60.60
2023-03-31T20:04:07.256Z,63.31
2023-03-31T20:05:43.752Z,65.21
2023-03-31T20:07:17.946Z,63.81
2023-03-31T20:08:42.639Z,62.04
2023-03-31T20:10:19.450Z,60.52
2023-03-31T20:11:56.569Z,58.96
2023-03-31T20:13:49.974Z,58.19
2023-03-31T20:15:25.928Z,60.25
2023-03-31T20:17:03.499Z,62.37
2023-03-31T20:19:00.878Z,65.04
2023-03-31T20:20:55.694Z,64.44
2023-03-31T20:22:31.392Z,62.20
2023-03-31T20:24:18.285Z,60.64
2023-03-31T20:25:52.893Z,59.29
2023-03-31T20:27:17.130Z,58.13
2023-03-31T20:31:06.462Z,61.66
2023-03-31T20:32:40.455Z,64.65
2023-03-31T20:34:14.073Z,64.91
2023-03-31T20:35:48.490Z,62.87
2023-03-31T20:37:27.301Z,61.12
2023-03-31T20:39:04.176Z,59.47
2023-03-31T20:40:57.885Z,58.10
2023-03-31T20:42:43.327Z,59.22
2023-03-31T20:44:16.837Z,61.01
2023-03-31T20:46:04.970Z,63.37
2023-03-31T20:47:39.549Z,64.89
2023-03-31T20:49:13.452Z,63.64
2023-03-31T20:50:59.874Z,61.54
2023-03-31T20:52:23.869Z,59.81
2023-03-31T20:54:01.608Z,58.59
2023-03-31T20:55:37.195Z,58.35
2023-03-31T20:57:13.173Z,60.22
2023-03-31T20:58:48.598Z,62.98
2023-03-31T21:00:12.873Z,64.70
2023-03-31T21:01:54.059Z,64.41
2023-03-31T21:03:18.402Z,62.39
2023-03-31T21:04:54.606Z,60.83
2023-03-31T21:06:23.834Z,59.38
2023-03-31T21:08:09.462Z,58.20
2023-03-31T21:09:55.910Z,59.49
2023-03-31T21:11:37.125Z,61.99
2023-03-31T21:13:13.768Z,64.93
2023-03-31T21:15:11.660Z,65.09
2023-03-31T21:17:09.236Z,62.78
2023-03-31T21:19:04.633Z,60.67
2023-03-31T21:20:58.182Z,59.07
2023-03-31T21:22:20.565Z,58.32
2023-03-31T21:24:08.905Z,59.71
2023-03-31T21:25:42.302Z,62.05
2023-03-31T21:27:22.872Z,64.98
2023-03-31T21:29:00.141Z,65.03
2023-03-31T21:30:33.757Z,63.09
2023-03-31T21:32:08.468Z,61.17
2023-03-31T21:33:30.504Z,59.48
2023-03-31T21:34:54.674Z,58.11
2023-03-31T21:36:28.050Z,58.67
2023-03-31T21:38:21.584Z,60.44
2023-03-31T21:40:06.925Z,63.51
2023-03-31T21:41:30.772Z,65.46
2023-03-31T21:43:15.821Z,64.52
2023-03-31T21:45:07.474Z,62.33
2023-03-31T21:46:52.895Z,60.32
2023-03-31T21:48:28.659Z,58.67
2023-03-31T21:49:50.540Z,58.18
2023-03-31T21:51:25.236Z,59.60
2023-03-31T21:52:51.443Z,61.58
2023-03-31T21:54:26.384Z,63.87
2023-03-31T21:55:58.462Z,64.94
2023-03-31T21:57:20.297Z,63.51
2023-03-31T21:59:01.368Z,61.63
2023-03-31T22:00:47.973Z,59.66
2023-03-31T22:02:24.928Z,57.91